Goliath Leader — C6WE5 — position and weather

sailwx.info

Track history (hours):
 
Tides and Currents Weather Stations Pressure Air Temp Water Temp Dewpoint Dewpoint Depression Visibility Wind Speed Wind Dir Waves Ship Positions

Goliath Leader

Last reported at 2017-Sep-26 15:07 UTC. Time now 2017-Oct-18 15:13 UTC.
Position N 37°43' E 016°04'.
Warning: this ship's position is 22 days out of date.

Length 200 m; draft 9.3 m.

Type: Cargo ship. MMSI: 308369000.

Date/timePositionNaut miles runAvg speedWind from/ knotsBaromVisibWave heightAir tempDewpointWater temp
2017-Sep-26 15:07N 37°43' E 016°04'1611.8
2017-Sep-26 13:44N 37°50' E 015°46'611.7
2017-Sep-26 13:14N 37°53' E 015°39'311.4
2017-Sep-26 12:58N 37°56' E 015°37'510.9
2017-Sep-26 12:30N 38°00' E 015°35'612.0
2017-Sep-26 12:00N 38°07' E 015°35'613.1
2017-Sep-26 11:30N 38°13' E 015°36'612.8
2017-Sep-26 11:00N 38°18' E 015°40'510.2
2017-Sep-26 10:30N 38°22' E 015°36'5 8.8
2017-Sep-26 09:58N 38°25' E 015°32'40111.7
2017-Sep-24 23:34N 43°15' E 009°25'111.8
2017-Sep-24 23:28N 43°16' E 009°24'611.8
2017-Sep-24 23:00N 43°21' E 009°20'811.8
2017-Sep-24 22:17N 43°28' E 009°14'311.8
2017-Sep-24 22:00N 43°31' E 009°12'611.1
2017-Sep-24 21:30N 43°36' E 009°08'611.3
2017-Sep-24 21:00N 43°41' E 009°04'611.4
2017-Sep-24 20:30N 43°46' E 009°00'611.6
2017-Sep-24 19:59N 43°51' E 008°56'611.5
2017-Sep-24 19:30N 43°56' E 008°52'611.3
2017-Sep-24 19:00N 44°00' E 008°48'811.3
2017-Sep-24 18:16N 44°08' E 008°42'511.3
2017-Sep-24 17:50N 44°12' E 008°38'411.3
2017-Sep-24 17:30N 44°15' E 008°35'510.4
2017-Sep-24 17:00N 44°19' E 008°31'1 1.4
2017-Sep-24 16:26N 44°19' E 008°30'0 0.0
2017-Sep-24 15:56N 44°19' E 008°30'0 0.0
2017-Sep-24 15:26N 44°19' E 008°30'0 0.0
2017-Sep-24 14:56N 44°19' E 008°30'0 0.0
2017-Sep-24 14:26N 44°19' E 008°30'0 0.0
2017-Sep-24 13:56N 44°19' E 008°30'0 0.0
2017-Sep-24 13:26N 44°19' E 008°30'0 0.0
2017-Sep-24 12:56N 44°19' E 008°30'0 0.0
2017-Sep-24 12:26N 44°19' E 008°30'0 0.0
2017-Sep-24 11:56N 44°19' E 008°30'0 0.0
2017-Sep-24 11:26N 44°19' E 008°30'0 0.0
2017-Sep-24 10:56N 44°19' E 008°30'0 0.0
2017-Sep-24 10:26N 44°19' E 008°30'0 0.0
2017-Sep-24 09:50N 44°19' E 008°30'0 0.0
2017-Sep-24 09:26N 44°19' E 008°30'0 0.0
2017-Sep-24 08:56N 44°19' E 008°30'0 0.0
2017-Sep-24 08:26N 44°19' E 008°30'0 0.0
2017-Sep-24 07:56N 44°19' E 008°30'0 0.0
2017-Sep-24 07:26N 44°19' E 008°30'0 0.0
2017-Sep-24 06:50N 44°19' E 008°30'0 0.0
2017-Sep-24 06:26N 44°19' E 008°30'0 0.0
2017-Sep-24 05:56N 44°19' E 008°30'0 0.0
2017-Sep-24 05:26N 44°19' E 008°30'0 0.0
2017-Sep-24 04:56N 44°19' E 008°30'0 0.0
2017-Sep-24 04:26N 44°19' E 008°30'0 0.0
2017-Sep-24 04:00N 44°19' E 008°30'0 0.4
2017-Sep-24 03:30N 44°19' E 008°30'2 3.8
2017-Sep-24 03:00N 44°18' E 008°33'4 7.5
2017-Sep-24 02:30N 44°15' E 008°35'4 8.4
2017-Sep-24 02:00N 44°11' E 008°37'612.8
2017-Sep-24 01:30N 44°06' E 008°32'  
2017-Sep-21 09:46N 36°30' W 008°60'13115.7
2017-Sep-21 01:28N 38°31' W 010°02'2617.1
2017-Sep-20 23:58N 38°56' W 010°06'816.5
2017-Sep-20 23:30N 39°04' W 010°06'816.3
2017-Sep-20 23:00N 39°12' W 010°06'69615.6
2017-Sep-19 02:23N 49°49' W 003°32'616.6
2017-Sep-19 02:00N 49°51' W 003°24'917.3
2017-Sep-19 01:31N 49°55' W 003°12'918.0
2017-Sep-19 01:00N 49°59' W 002°59'8716.6
2017-Sep-18 19:46N 50°40' W 000°59'2 7.6
2017-Sep-18 19:30N 50°42' W 000°58'612.9
2017-Sep-18 19:00N 50°45' W 001°07'815.7
2017-Sep-18 18:31N 50°47' W 001°19'3 0.1
2017-Sep-17 18:50N 50°50' W 001°19'3 8.8
2017-Sep-17 18:29N 50°47' W 001°19'511.2
2017-Sep-17 18:00N 50°46' W 001°11'713.5
2017-Sep-17 17:30N 50°43' W 001°01'29 2.5
2017-Sep-17 05:53N 50°31' W 000°19'615.4
2017-Sep-17 05:30N 50°31' W 000°10'815.6
2017-Sep-17 05:01N 50°32' E 000°02'1016.0
2017-Sep-17 04:23N 50°35' E 000°17'4217.3
2017-Sep-17 01:57N 50°54' E 001°16'817.9
2017-Sep-17 01:30N 50°60' E 001°25'817.0
2017-Sep-17 01:00N 51°06' E 001°34'816.2
2017-Sep-17 00:31N 51°12' E 001°43'815.6
2017-Sep-17 00:00N 51°18' E 001°51'815.3
2017-Sep-16 23:29N 51°24' E 001°58'715.0
2017-Sep-16 23:00N 51°22' E 002°10'814.9
2017-Sep-16 22:29N 51°21' E 002°22'714.7
2017-Sep-16 22:01N 51°23' E 002°33'714.0
2017-Sep-16 21:30N 51°23' E 002°44'5 9.4
2017-Sep-16 21:01N 51°22' E 002°51'713.5
2017-Sep-16 20:30N 51°24' E 003°02'713.2
2017-Sep-16 20:00N 51°24' E 003°12'713.5
2017-Sep-16 19:30N 51°25' E 003°23'713.3
2017-Sep-16 19:01N 51°26' E 003°34'5 9.6
2017-Sep-16 18:30N 51°26' E 003°42'612.9
2017-Sep-16 18:00N 51°21' E 003°48'713.3
2017-Sep-16 17:30N 51°24' E 003°57'4 8.9
2017-Sep-16 17:00N 51°22' E 004°04'611.6
2017-Sep-16 16:30N 51°23' E 004°13'510.6
2017-Sep-16 16:00N 51°18' E 004°16'1 1.8
2017-Sep-16 15:30N 51°17' E 004°15'  
Track history (hours):
 
Tides and Currents Weather Stations Pressure Air Temp Water Temp Dewpoint Dewpoint Depression Visibility Wind Speed Wind Dir Waves Ship Positions

Goliath Leader

Last reported at 2017-Sep-26 15:07 UTC. Time now 2017-Oct-18 15:13 UTC.
Position N 37°43' E 016°04'.
Warning: this ship's position is 22 days out of date.

Length 200 m; draft 9.3 m.

Type: Cargo ship. MMSI: 308369000.

Date/timePositionNaut miles runAvg speedWind from/ knotsBaromVisibWave heightAir tempDewpointWater temp
2017-Sep-26 15:07N 37°43' E 016°04'1611.8
2017-Sep-26 13:44N 37°50' E 015°46'611.7
2017-Sep-26 13:14N 37°53' E 015°39'311.4
2017-Sep-26 12:58N 37°56' E 015°37'510.9
2017-Sep-26 12:30N 38°00' E 015°35'612.0
2017-Sep-26 12:00N 38°07' E 015°35'613.1
2017-Sep-26 11:30N 38°13' E 015°36'612.8
2017-Sep-26 11:00N 38°18' E 015°40'510.2
2017-Sep-26 10:30N 38°22' E 015°36'5 8.8
2017-Sep-26 09:58N 38°25' E 015°32'40111.7
2017-Sep-24 23:34N 43°15' E 009°25'111.8
2017-Sep-24 23:28N 43°16' E 009°24'611.8
2017-Sep-24 23:00N 43°21' E 009°20'811.8
2017-Sep-24 22:17N 43°28' E 009°14'311.8
2017-Sep-24 22:00N 43°31' E 009°12'611.1
2017-Sep-24 21:30N 43°36' E 009°08'611.3
2017-Sep-24 21:00N 43°41' E 009°04'611.4
2017-Sep-24 20:30N 43°46' E 009°00'611.6
2017-Sep-24 19:59N 43°51' E 008°56'611.5
2017-Sep-24 19:30N 43°56' E 008°52'611.3
2017-Sep-24 19:00N 44°00' E 008°48'811.3
2017-Sep-24 18:16N 44°08' E 008°42'511.3
2017-Sep-24 17:50N 44°12' E 008°38'411.3
2017-Sep-24 17:30N 44°15' E 008°35'510.4
2017-Sep-24 17:00N 44°19' E 008°31'1 1.4
2017-Sep-24 16:26N 44°19' E 008°30'0 0.0
2017-Sep-24 15:56N 44°19' E 008°30'0 0.0
2017-Sep-24 15:26N 44°19' E 008°30'0 0.0
2017-Sep-24 14:56N 44°19' E 008°30'0 0.0
2017-Sep-24 14:26N 44°19' E 008°30'0 0.0
2017-Sep-24 13:56N 44°19' E 008°30'0 0.0
2017-Sep-24 13:26N 44°19' E 008°30'0 0.0
2017-Sep-24 12:56N 44°19' E 008°30'0 0.0
2017-Sep-24 12:26N 44°19' E 008°30'0 0.0
2017-Sep-24 11:56N 44°19' E 008°30'0 0.0
2017-Sep-24 11:26N 44°19' E 008°30'0 0.0
2017-Sep-24 10:56N 44°19' E 008°30'0 0.0
2017-Sep-24 10:26N 44°19' E 008°30'0 0.0
2017-Sep-24 09:50N 44°19' E 008°30'0 0.0
2017-Sep-24 09:26N 44°19' E 008°30'0 0.0
2017-Sep-24 08:56N 44°19' E 008°30'0 0.0
2017-Sep-24 08:26N 44°19' E 008°30'0 0.0
2017-Sep-24 07:56N 44°19' E 008°30'0 0.0
2017-Sep-24 07:26N 44°19' E 008°30'0 0.0
2017-Sep-24 06:50N 44°19' E 008°30'0 0.0
2017-Sep-24 06:26N 44°19' E 008°30'0 0.0
2017-Sep-24 05:56N 44°19' E 008°30'0 0.0
2017-Sep-24 05:26N 44°19' E 008°30'0 0.0
2017-Sep-24 04:56N 44°19' E 008°30'0 0.0
2017-Sep-24 04:26N 44°19' E 008°30'0 0.0
2017-Sep-24 04:00N 44°19' E 008°30'0 0.4
2017-Sep-24 03:30N 44°19' E 008°30'2 3.8
2017-Sep-24 03:00N 44°18' E 008°33'4 7.5
2017-Sep-24 02:30N 44°15' E 008°35'4 8.4
2017-Sep-24 02:00N 44°11' E 008°37'612.8
2017-Sep-24 01:30N 44°06' E 008°32'  
2017-Sep-21 09:46N 36°30' W 008°60'13115.7
2017-Sep-21 01:28N 38°31' W 010°02'2617.1
2017-Sep-20 23:58N 38°56' W 010°06'816.5
2017-Sep-20 23:30N 39°04' W 010°06'816.3
2017-Sep-20 23:00N 39°12' W 010°06'69615.6
2017-Sep-19 02:23N 49°49' W 003°32'616.6
2017-Sep-19 02:00N 49°51' W 003°24'917.3
2017-Sep-19 01:31N 49°55' W 003°12'918.0
2017-Sep-19 01:00N 49°59' W 002°59'8716.6
2017-Sep-18 19:46N 50°40' W 000°59'2 7.6
2017-Sep-18 19:30N 50°42' W 000°58'612.9
2017-Sep-18 19:00N 50°45' W 001°07'815.7
2017-Sep-18 18:31N 50°47' W 001°19'3 0.1
2017-Sep-17 18:50N 50°50' W 001°19'3 8.8
2017-Sep-17 18:29N 50°47' W 001°19'511.2
2017-Sep-17 18:00N 50°46' W 001°11'713.5
2017-Sep-17 17:30N 50°43' W 001°01'29 2.5
2017-Sep-17 05:53N 50°31' W 000°19'615.4
2017-Sep-17 05:30N 50°31' W 000°10'815.6
2017-Sep-17 05:01N 50°32' E 000°02'1016.0
2017-Sep-17 04:23N 50°35' E 000°17'4217.3
2017-Sep-17 01:57N 50°54' E 001°16'817.9
2017-Sep-17 01:30N 50°60' E 001°25'817.0
2017-Sep-17 01:00N 51°06' E 001°34'816.2
2017-Sep-17 00:31N 51°12' E 001°43'815.6
2017-Sep-17 00:00N 51°18' E 001°51'815.3
2017-Sep-16 23:29N 51°24' E 001°58'715.0
2017-Sep-16 23:00N 51°22' E 002°10'814.9
2017-Sep-16 22:29N 51°21' E 002°22'714.7
2017-Sep-16 22:01N 51°23' E 002°33'714.0
2017-Sep-16 21:30N 51°23' E 002°44'5 9.4
2017-Sep-16 21:01N 51°22' E 002°51'713.5
2017-Sep-16 20:30N 51°24' E 003°02'713.2
2017-Sep-16 20:00N 51°24' E 003°12'713.5
2017-Sep-16 19:30N 51°25' E 003°23'713.3
2017-Sep-16 19:01N 51°26' E 003°34'5 9.6
2017-Sep-16 18:30N 51°26' E 003°42'612.9
2017-Sep-16 18:00N 51°21' E 003°48'713.3
2017-Sep-16 17:30N 51°24' E 003°57'4 8.9
2017-Sep-16 17:00N 51°22' E 004°04'611.6
2017-Sep-16 16:30N 51°23' E 004°13'510.6
2017-Sep-16 16:00N 51°18' E 004°16'1 1.8
2017-Sep-16 15:30N 51°17' E 004°15'  

Dump ship's entire track history